sensor_id;sensor_type;location;lat;lon;timestamp;pressure;altitude;pressure_sealevel;temperature;humidity
63901;BME280;50538;53.482;10.294;2023-02-10T00:09:12;102729.31;;;2.69;92.21
63901;BME280;50538;53.482;10.294;2023-02-10T00:19:13;102730.25;;;2.68;92.41
63901;BME280;50538;53.482;10.294;2023-02-10T00:29:14;102724.06;;;2.69;92.84
63901;BME280;50538;53.482;10.294;2023-02-10T00:39:15;102733.72;;;2.68;93.22
63901;BME280;50538;53.482;10.294;2023-02-10T00:49:15;102758.97;;;2.71;93.32
63901;BME280;50538;53.482;10.294;2023-02-10T00:59:16;102755.34;;;2.74;93.52
63901;BME280;50538;53.482;10.294;2023-02-10T01:09:16;102746.56;;;2.75;93.40
63901;BME280;50538;53.482;10.294;2023-02-10T01:19:17;102756.13;;;2.76;93.62
63901;BME280;50538;53.482;10.294;2023-02-10T01:29:18;102749.97;;;2.77;93.46
63901;BME280;50538;53.482;10.294;2023-02-10T01:39:18;102736.72;;;2.80;93.62
63901;BME280;50538;53.482;10.294;2023-02-10T01:49:30;102733.19;;;2.81;93.75
63901;BME280;50538;53.482;10.294;2023-02-10T01:59:32;102737.38;;;2.85;93.63
63901;BME280;50538;53.482;10.294;2023-02-10T02:09:34;102733.72;;;2.89;93.76
63901;BME280;50538;53.482;10.294;2023-02-10T02:30:46;102728.38;;;2.90;93.52
63901;BME280;50538;53.482;10.294;2023-02-10T02:40:53;102737.38;;;2.85;93.49
63901;BME280;50538;53.482;10.294;2023-02-10T02:51:09;102738.44;;;2.81;94.04
63901;BME280;50538;53.482;10.294;2023-02-10T03:01:16;102738.56;;;2.78;94.24
63901;BME280;50538;53.482;10.294;2023-02-10T03:11:18;102729.06;;;2.75;94.38
63901;BME280;50538;53.482;10.294;2023-02-10T03:21:18;102713.31;;;2.75;94.80
63901;BME280;50538;53.482;10.294;2023-02-10T03:31:18;102729.97;;;2.74;95.07
63901;BME280;50538;53.482;10.294;2023-02-10T03:41:19;102724.78;;;2.73;95.47
63901;BME280;50538;53.482;10.294;2023-02-10T03:51:19;102742.31;;;2.72;95.55
63901;BME280;50538;53.482;10.294;2023-02-10T04:01:19;102742.56;;;2.66;95.14
63901;BME280;50538;53.482;10.294;2023-02-10T04:11:20;102738.56;;;2.57;95.33
63901;BME280;50538;53.482;10.294;2023-02-10T04:21:20;102757.44;;;2.45;95.25
63901;BME280;50538;53.482;10.294;2023-02-10T04:31:22;102767.22;;;2.42;95.83
63901;BME280;50538;53.482;10.294;2023-02-10T04:41:22;102772.41;;;2.43;96.56
63901;BME280;50538;53.482;10.294;2023-02-10T04:51:23;102774.81;;;2.48;97.14
63901;BME280;50538;53.482;10.294;2023-02-10T05:01:23;102787.72;;;2.52;97.33
63901;BME280;50538;53.482;10.294;2023-02-10T05:11:24;102785.88;;;2.54;97.63
63901;BME280;50538;53.482;10.294;2023-02-10T05:21:24;102798.94;;;2.56;97.81
63901;BME280;50538;53.482;10.294;2023-02-10T05:31:26;102804.25;;;2.54;98.01
63901;BME280;50538;53.482;10.294;2023-02-10T05:41:27;102811.00;;;2.60;98.61
63901;BME280;50538;53.482;10.294;2023-02-10T05:51:27;102818.63;;;2.66;98.95
63901;BME280;50538;53.482;10.294;2023-02-10T06:01:30;102828.13;;;2.68;99.16
63901;BME280;50538;53.482;10.294;2023-02-10T06:11:31;102814.16;;;2.68;99.18
63901;BME280;50538;53.482;10.294;2023-02-10T06:21:31;102822.75;;;2.72;99.16
63901;BME280;50538;53.482;10.294;2023-02-10T06:31:32;102840.16;;;2.74;99.30
63901;BME280;50538;53.482;10.294;2023-02-10T06:41:33;102848.88;;;2.75;99.16
63901;BME280;50538;53.482;10.294;2023-02-10T06:51:33;102856.66;;;2.76;99.54
63901;BME280;50538;53.482;10.294;2023-02-10T07:01:34;102865.22;;;2.81;99.56
63901;BME280;50538;53.482;10.294;2023-02-10T07:11:35;102866.78;;;2.85;99.71
63901;BME280;50538;53.482;10.294;2023-02-10T07:21:36;102875.31;;;2.90;99.89
63901;BME280;50538;53.482;10.294;2023-02-10T07:31:38;102889.09;;;2.95;99.80
63901;BME280;50538;53.482;10.294;2023-02-10T07:41:38;102899.66;;;2.94;99.79
63901;BME280;50538;53.482;10.294;2023-02-10T07:51:39;102913.50;;;2.97;99.77
63901;BME280;50538;53.482;10.294;2023-02-10T08:01:40;102914.09;;;3.04;99.95
63901;BME280;50538;53.482;10.294;2023-02-10T08:11:43;102918.09;;;3.13;99.96
63901;BME280;50538;53.482;10.294;2023-02-10T08:21:45;102914.38;;;3.18;99.74
63901;BME280;50538;53.482;10.294;2023-02-10T08:31:55;102906.75;;;3.32;99.68
63901;BME280;50538;53.482;10.294;2023-02-10T08:41:57;102918.38;;;3.47;98.87
63901;BME280;50538;53.482;10.294;2023-02-10T08:51:58;102918.84;;;3.57;97.95
63901;BME280;50538;53.482;10.294;2023-02-10T09:02:00;102909.03;;;3.60;97.39
63901;BME280;50538;53.482;10.294;2023-02-10T09:12:03;102918.34;;;3.67;96.84
63901;BME280;50538;53.482;10.294;2023-02-10T09:22:04;102930.41;;;3.72;96.50
63901;BME280;50538;53.482;10.294;2023-02-10T09:32:10;102925.31;;;3.68;96.19
63901;BME280;50538;53.482;10.294;2023-02-10T10:03:19;102936.06;;;3.83;95.79
63901;BME280;50538;53.482;10.294;2023-02-10T10:13:27;102945.19;;;3.94;95.74
63901;BME280;50538;53.482;10.294;2023-02-10T10:34:18;102952.09;;;4.16;95.23
63901;BME280;50538;53.482;10.294;2023-02-10T10:44:22;102943.41;;;4.32;94.75
63901;BME280;50538;53.482;10.294;2023-02-10T10:54:25;102943.69;;;4.45;93.75
63901;BME280;50538;53.482;10.294;2023-02-10T11:04:27;102940.91;;;4.48;92.73
63901;BME280;50538;53.482;10.294;2023-02-10T11:14:37;102939.34;;;4.63;92.35
63901;BME280;50538;53.482;10.294;2023-02-10T11:24:50;102921.47;;;4.70;91.76
63901;BME280;50538;53.482;10.294;2023-02-10T11:34:58;102913.06;;;4.97;91.38
63901;BME280;50538;53.482;10.294;2023-02-10T11:45:17;102894.72;;;5.30;89.29
63901;BME280;50538;53.482;10.294;2023-02-10T11:55:19;102892.69;;;5.68;87.23
63901;BME280;50538;53.482;10.294;2023-02-10T12:26:50;102845.34;;;6.46;82.40
63901;BME280;50538;53.482;10.294;2023-02-10T12:58:08;102791.47;;;6.80;78.37
63901;BME280;50538;53.482;10.294;2023-02-10T13:08:19;102774.59;;;6.82;77.77
63901;BME280;50538;53.482;10.294;2023-02-10T13:18:26;102788.72;;;6.81;77.21
63901;BME280;50538;53.482;10.294;2023-02-10T13:38:49;102769.81;;;7.31;75.02
63901;BME280;50538;53.482;10.294;2023-02-10T13:48:54;102766.31;;;7.31;74.92
63901;BME280;50538;53.482;10.294;2023-02-10T13:59:23;102737.63;;;7.25;74.38
63901;BME280;50538;53.482;10.294;2023-02-10T14:09:38;102732.16;;;7.14;74.22
63901;BME280;50538;53.482;10.294;2023-02-10T14:19:40;102723.97;;;7.04;73.74
63901;BME280;50538;53.482;10.294;2023-02-10T14:29:48;102720.66;;;7.01;74.10
63901;BME280;50538;53.482;10.294;2023-02-10T14:39:56;102715.75;;;6.94;74.37
63901;BME280;50538;53.482;10.294;2023-02-10T14:49:57;102706.69;;;6.84;74.33
63901;BME280;50538;53.482;10.294;2023-02-10T15:00:03;102699.81;;;6.82;74.43
63901;BME280;50538;53.482;10.294;2023-02-10T15:10:26;102679.53;;;6.68;74.12
63901;BME280;50538;53.482;10.294;2023-02-10T15:20:31;102678.94;;;6.63;74.75
63901;BME280;50538;53.482;10.294;2023-02-10T15:30:42;102680.22;;;6.56;74.60
63901;BME280;50538;53.482;10.294;2023-02-10T15:40:52;102652.91;;;6.43;74.69
63901;BME280;50538;53.482;10.294;2023-02-10T15:50:56;102674.66;;;6.32;75.15
63901;BME280;50538;53.482;10.294;2023-02-10T16:00:57;102673.47;;;6.22;75.73
63901;BME280;50538;53.482;10.294;2023-02-10T16:10:57;102686.25;;;6.14;76.13
63901;BME280;50538;53.482;10.294;2023-02-10T16:20:58;102692.91;;;6.05;76.95
63901;BME280;50538;53.482;10.294;2023-02-10T16:31:00;102688.94;;;5.98;77.79
63901;BME280;50538;53.482;10.294;2023-02-10T16:41:00;102675.16;;;5.93;78.40
63901;BME280;50538;53.482;10.294;2023-02-10T16:51:00;102688.56;;;5.90;78.63
63901;BME280;50538;53.482;10.294;2023-02-10T17:01:02;102685.31;;;5.85;79.21
63901;BME280;50538;53.482;10.294;2023-02-10T17:11:03;102670.72;;;5.79;79.75
63901;BME280;50538;53.482;10.294;2023-02-10T17:21:03;102662.22;;;5.74;80.12
63901;BME280;50538;53.482;10.294;2023-02-10T17:31:04;102660.00;;;5.66;80.15
63901;BME280;50538;53.482;10.294;2023-02-10T17:41:08;102669.09;;;5.61;80.37
63901;BME280;50538;53.482;10.294;2023-02-10T17:51:12;102665.19;;;5.52;80.59
63901;BME280;50538;53.482;10.294;2023-02-10T18:01:21;102653.91;;;5.50;79.95
63901;BME280;50538;53.482;10.294;2023-02-10T18:11:23;102626.28;;;5.42;80.03
63901;BME280;50538;53.482;10.294;2023-02-10T18:21:23;102639.88;;;5.34;80.20
63901;BME280;50538;53.482;10.294;2023-02-10T18:31:24;102629.78;;;5.26;80.08
63901;BME280;50538;53.482;10.294;2023-02-10T18:41:25;102626.56;;;5.21;80.10
63901;BME280;50538;53.482;10.294;2023-02-10T18:51:26;102617.47;;;5.11;80.34
63901;BME280;50538;53.482;10.294;2023-02-10T19:01:26;102609.31;;;5.00;80.53
63901;BME280;50538;53.482;10.294;2023-02-10T19:11:27;102613.28;;;4.91;80.64
63901;BME280;50538;53.482;10.294;2023-02-10T19:21:28;102596.97;;;4.85;80.89
63901;BME280;50538;53.482;10.294;2023-02-10T19:31:28;102579.03;;;4.76;80.59
63901;BME280;50538;53.482;10.294;2023-02-10T19:41:28;102570.81;;;4.66;80.61
63901;BME280;50538;53.482;10.294;2023-02-10T19:51:29;102567.59;;;4.61;80.40
63901;BME280;50538;53.482;10.294;2023-02-10T20:01:29;102553.75;;;4.57;80.08
63901;BME280;50538;53.482;10.294;2023-02-10T20:11:30;102528.63;;;4.52;80.38
63901;BME280;50538;53.482;10.294;2023-02-10T20:21:30;102510.28;;;4.50;80.53
63901;BME280;50538;53.482;10.294;2023-02-10T20:31:31;102498.84;;;4.51;81.05
63901;BME280;50538;53.482;10.294;2023-02-10T20:41:32;102508.88;;;4.60;80.97
63901;BME280;50538;53.482;10.294;2023-02-10T20:51:33;102543.50;;;4.68;81.34
63901;BME280;50538;53.482;10.294;2023-02-10T21:01:33;102522.00;;;4.76;81.04
63901;BME280;50538;53.482;10.294;2023-02-10T21:11:35;102521.66;;;4.82;81.38
63901;BME280;50538;53.482;10.294;2023-02-10T21:21:36;102521.41;;;4.87;81.21
63901;BME280;50538;53.482;10.294;2023-02-10T21:31:38;102495.78;;;4.90;81.69
63901;BME280;50538;53.482;10.294;2023-02-10T21:41:38;102472.84;;;4.92;81.92
63901;BME280;50538;53.482;10.294;2023-02-10T21:51:41;102464.94;;;4.92;82.59
63901;BME280;50538;53.482;10.294;2023-02-10T22:01:41;102452.38;;;4.97;83.19
63901;BME280;50538;53.482;10.294;2023-02-10T22:11:42;102433.94;;;4.97;84.12
63901;BME280;50538;53.482;10.294;2023-02-10T22:21:42;102405.56;;;5.02;84.92
63901;BME280;50538;53.482;10.294;2023-02-10T22:31:43;102408.78;;;5.08;85.82
63901;BME280;50538;53.482;10.294;2023-02-10T22:41:48;102385.78;;;5.11;86.11
63901;BME280;50538;53.482;10.294;2023-02-10T22:51:48;102412.09;;;5.11;86.74
63901;BME280;50538;53.482;10.294;2023-02-10T23:01:48;102431.13;;;5.16;87.23
63901;BME280;50538;53.482;10.294;2023-02-10T23:11:50;102402.63;;;5.23;87.84
63901;BME280;50538;53.482;10.294;2023-02-10T23:21:54;102412.63;;;5.32;88.07
63901;BME280;50538;53.482;10.294;2023-02-10T23:31:56;102423.44;;;5.42;88.42
63901;BME280;50538;53.482;10.294;2023-02-10T23:41:57;102392.31;;;5.48;88.20
63901;BME280;50538;53.482;10.294;2023-02-10T23:51:57;102392.78;;;5.55;88.23
